Time;durP1;ratioP1;P1;durP2;ratioP2;P2;SDS_P1;SDS_P2;PMS_P1;PMS_P2;Temp;Humidity;BMP_temperature;BMP_pressure;BME280_temperature;BME280_humidity;BME280_pressure;Samples;Min_cycle;Max_cycle;Signal;HPM_P1;HPM_P2
2021/05/20 00:00:43;;;;;;;0.98;0.90;;;4.80;99.90;;;;;;2114278;28;20201;-66
2021/05/20 00:01:44;;;;;;;1.80;1.07;;;4.90;99.90;;;;;;2114136;27;20184;-66
2021/05/20 00:02:45;;;;;;;3.27;1.00;;;4.90;99.90;;;;;;2114321;28;20181;-67
2021/05/20 00:03:46;;;;;;;2.03;0.80;;;5.00;99.90;;;;;;2113560;28;20554;-67
2021/05/20 00:04:47;;;;;;;1.27;0.90;;;4.90;99.90;;;;;;2113611;28;20238;-67
2021/05/20 00:05:48;;;;;;;1.97;1.20;;;4.90;99.90;;;;;;2114094;28;20679;-67
2021/05/20 00:06:49;;;;;;;1.47;0.93;;;4.90;99.90;;;;;;2113534;28;20180;-67
2021/05/20 00:07:50;;;;;;;1.10;1.00;;;4.90;99.90;;;;;;2105055;28;20201;-67
2021/05/20 00:08:50;;;;;;;1.10;0.90;;;4.90;99.90;;;;;;2105270;28;20217;-67
2021/05/20 00:09:51;;;;;;;1.10;1.00;;;4.90;99.90;;;;;;2105147;28;20614;-67
2021/05/20 00:10:52;;;;;;;2.30;1.07;;;4.90;99.90;;;;;;2113515;28;20189;-67
2021/05/20 00:11:53;;;;;;;1.40;0.90;;;4.90;99.90;;;;;;2113143;28;20181;-67
2021/05/20 00:12:53;;;;;;;0.90;0.90;;;4.90;99.90;;;;;;2113524;28;20173;-67
2021/05/20 00:13:54;;;;;;;1.53;0.90;;;4.90;99.90;;;;;;2113887;28;20215;-67
2021/05/20 00:14:55;;;;;;;1.87;0.80;;;4.90;99.90;;;;;;2114196;28;20216;-67
2021/05/20 00:15:55;;;;;;;2.63;1.23;;;4.90;99.90;;;;;;2114104;28;20215;-66
2021/05/20 00:16:56;;;;;;;1.57;1.07;;;4.90;99.90;;;;;;2114187;28;20654;-67
2021/05/20 00:17:57;;;;;;;1.10;0.90;;;4.90;99.90;;;;;;2114114;28;20188;-67
2021/05/20 00:18:58;;;;;;;1.67;1.03;;;4.80;99.90;;;;;;2114026;28;20208;-67
2021/05/20 00:19:59;;;;;;;1.87;1.10;;;4.80;99.90;;;;;;2114073;28;20175;-67
2021/05/20 00:20:59;;;;;;;1.20;0.93;;;4.90;99.90;;;;;;2114024;28;20265;-66
2021/05/20 00:22:00;;;;;;;1.00;0.87;;;4.90;99.90;;;;;;2113929;28;20181;-67
2021/05/20 00:23:01;;;;;;;1.30;0.90;;;4.90;99.90;;;;;;2113420;28;20173;-67
2021/05/20 00:24:02;;;;;;;1.10;0.90;;;5.00;99.90;;;;;;2113480;28;20177;-66
2021/05/20 00:25:04;;;;;;;2.53;1.30;;;4.90;99.90;;;;;;2113900;28;20185;-67
2021/05/20 00:26:05;;;;;;;1.10;0.90;;;5.00;99.90;;;;;;2114246;28;20261;-67
2021/05/20 00:27:06;;;;;;;2.57;1.10;;;5.00;99.90;;;;;;2113989;28;20174;-67
2021/05/20 00:28:06;;;;;;;2.43;1.07;;;5.00;99.90;;;;;;2114314;28;20182;-66
2021/05/20 00:29:07;;;;;;;3.10;1.13;;;5.10;99.90;;;;;;2113911;28;20210;-67
2021/05/20 00:30:12;;;;;;;2.30;1.03;;;5.10;99.90;;;;;;2113958;28;20173;-67
2021/05/20 00:31:13;;;;;;;1.17;1.08;;;5.10;99.90;;;;;;2113901;28;20261;-67
2021/05/20 00:32:13;;;;;;;1.53;1.07;;;5.10;99.90;;;;;;2113519;28;20189;-67
2021/05/20 00:33:14;;;;;;;2.43;1.40;;;5.10;99.90;;;;;;2113339;28;20213;-67
2021/05/20 00:34:15;;;;;;;1.93;1.20;;;5.10;99.90;;;;;;2114038;28;20268;-67
2021/05/20 00:35:15;;;;;;;2.60;1.20;;;5.10;99.90;;;;;;2113728;28;20182;-66
2021/05/20 00:36:16;;;;;;;2.20;1.40;;;5.10;99.90;;;;;;2114071;28;20179;-67
2021/05/20 00:37:18;;;;;;;2.43;1.50;;;5.20;99.90;;;;;;2113986;28;20277;-67
2021/05/20 00:38:18;;;;;;;5.10;2.00;;;5.20;99.90;;;;;;2114081;28;20182;-66
2021/05/20 00:39:19;;;;;;;4.50;1.80;;;5.20;99.90;;;;;;2113979;28;20186;-67
2021/05/20 00:40:20;;;;;;;3.30;2.00;;;5.20;99.90;;;;;;2114061;28;20190;-66
2021/05/20 00:41:21;;;;;;;6.53;1.60;;;5.20;99.90;;;;;;2113692;28;20173;-67
2021/05/20 00:42:22;;;;;;;1.77;1.58;;;5.20;99.90;;;;;;2114001;28;20182;-67
2021/05/20 00:43:22;;;;;;;3.57;1.47;;;5.20;99.90;;;;;;2113901;28;20185;-67
2021/05/20 00:44:23;;;;;;;4.10;1.40;;;5.20;99.90;;;;;;2114155;28;20177;-67
2021/05/20 00:45:24;;;;;;;2.43;1.47;;;5.20;99.90;;;;;;2113051;28;20251;-67
2021/05/20 00:46:25;;;;;;;2.17;1.37;;;5.30;99.90;;;;;;2113332;28;20239;-67
2021/05/20 00:47:32;;;;;;;2.03;1.53;;;5.30;99.90;;;;;;2113891;28;20546;-67
2021/05/20 00:48:33;;;;;;;1.85;1.10;;;5.40;99.90;;;;;;2113915;28;20177;-66
2021/05/20 00:49:35;;;;;;;2.67;1.30;;;5.40;99.90;;;;;;2113895;28;20197;-67
2021/05/20 00:50:36;;;;;;;2.13;1.08;;;5.40;99.90;;;;;;2113980;28;20732;-66
2021/05/20 00:51:40;;;;;;;1.90;1.50;;;5.50;99.90;;;;;;2113700;28;20184;-66
2021/05/20 00:52:41;;;;;;;1.42;1.23;;;5.50;99.90;;;;;;2113445;28;20174;-67
2021/05/20 00:53:42;;;;;;;1.03;0.97;;;5.50;99.90;;;;;;2113298;28;20238;-66
2021/05/20 00:54:43;;;;;;;1.40;1.00;;;5.50;99.90;;;;;;2113984;28;20197;-67
2021/05/20 00:55:45;;;;;;;2.20;1.13;;;5.50;99.90;;;;;;2113793;28;20213;-67
2021/05/20 00:56:46;;;;;;;2.85;1.60;;;5.50;99.90;;;;;;2113869;28;20178;-67
2021/05/20 00:57:48;;;;;;;3.25;1.73;;;5.50;99.90;;;;;;2113850;28;20269;-66
2021/05/20 00:58:49;;;;;;;3.08;1.50;;;5.50;99.90;;;;;;2113840;28;20178;-66
2021/05/20 00:59:52;;;;;;;3.30;1.55;;;5.50;99.90;;;;;;2113948;28;20193;-66
2021/05/20 01:00:54;;;;;;;4.43;1.73;;;5.40;99.90;;;;;;2115493;28;20207;-67
2021/05/20 01:01:55;;;;;;;5.38;2.00;;;5.40;99.90;;;;;;2115289;28;20194;-67
2021/05/20 01:02:56;;;;;;;5.07;2.37;;;5.50;99.90;;;;;;2114994;28;20260;-67
2021/05/20 01:03:57;;;;;;;5.27;1.90;;;5.50;99.90;;;;;;2106564;28;20649;-67
2021/05/20 01:04:58;;;;;;;4.63;2.03;;;5.50;99.90;;;;;;2114944;28;20182;-67
2021/05/20 01:05:58;;;;;;;3.37;1.80;;;5.50;99.90;;;;;;2115401;28;20197;-67
2021/05/20 01:06:59;;;;;;;3.27;1.80;;;5.60;99.90;;;;;;2115573;28;20240;-66
2021/05/20 01:08:00;;;;;;;2.60;1.50;;;5.60;99.90;;;;;;2114603;28;20187;-67
2021/05/20 01:09:00;;;;;;;2.80;1.40;;;5.70;99.90;;;;;;2114888;28;20206;-67
2021/05/20 01:10:04;;;;;;;3.53;1.40;;;5.70;99.90;;;;;;2114720;28;20177;-66
2021/05/20 01:11:05;;;;;;;2.33;1.25;;;5.70;99.90;;;;;;2114973;28;20174;-67
2021/05/20 01:12:10;;;;;;;2.27;1.17;;;5.70;99.90;;;;;;2115424;28;20201;-66
2021/05/20 01:13:11;;;;;;;2.85;1.35;;;5.70;99.90;;;;;;2115621;28;20212;-67
2021/05/20 01:14:12;;;;;;;1.97;1.30;;;5.80;99.90;;;;;;2115437;28;20575;-66
2021/05/20 01:15:27;;;;;;;2.47;1.43;;;5.80;99.90;;;;;;2115311;28;20186;-67
2021/05/20 01:16:28;;;;;;;2.47;1.50;;;5.80;99.90;;;;;;2114864;28;20181;-66
2021/05/20 01:17:29;;;;;;;4.20;1.27;;;5.90;99.90;;;;;;2114953;28;20686;-67
2021/05/20 01:18:29;;;;;;;3.17;1.43;;;5.90;99.90;;;;;;2115299;28;20210;-67
2021/05/20 01:19:30;;;;;;;1.93;1.07;;;5.90;99.90;;;;;;2115585;28;20258;-66
2021/05/20 01:20:38;;;;;;;1.77;1.00;;;5.90;99.90;;;;;;2115457;28;20237;-67
2021/05/20 01:21:40;;;;;;;3.25;1.30;;;6.00;99.90;;;;;;2115264;28;20198;-67
2021/05/20 01:22:41;;;;;;;1.25;1.15;;;6.00;99.90;;;;;;2111315;28;20190;-67
2021/05/20 01:23:41;;;;;;;3.53;1.57;;;6.00;99.90;;;;;;2114787;28;20174;-67
2021/05/20 01:24:43;;;;;;;1.60;1.27;;;6.00;99.90;;;;;;2115365;28;20181;-67
2021/05/20 01:25:47;;;;;;;5.32;1.75;;;6.10;99.90;;;;;;2115371;28;20213;-66
2021/05/20 01:26:49;;;;;;;4.60;1.80;;;6.00;99.90;;;;;;2114692;28;20186;-67
2021/05/20 01:27:52;;;;;;;3.75;2.20;;;6.10;99.90;;;;;;2106666;28;20221;-67
2021/05/20 01:28:53;;;;;;;7.20;2.30;;;6.10;99.90;;;;;;2114434;28;20213;-67
2021/05/20 01:29:53;;;;;;;4.27;2.20;;;6.20;99.90;;;;;;2115461;28;20331;-67
2021/05/20 01:30:54;;;;;;;4.20;1.50;;;6.10;99.90;;;;;;2115400;28;20256;-66
2021/05/20 01:31:55;;;;;;;2.33;1.53;;;6.10;99.90;;;;;;2115345;28;20722;-67
2021/05/20 01:32:56;;;;;;;5.20;1.80;;;6.10;99.90;;;;;;2115448;27;20244;-67
2021/05/20 01:33:57;;;;;;;4.47;2.00;;;6.10;99.90;;;;;;2115474;28;20178;-67
2021/05/20 01:34:58;;;;;;;4.20;1.70;;;6.10;99.90;;;;;;2115284;27;20189;-67
2021/05/20 01:35:59;;;;;;;1.42;1.08;;;6.10;99.90;;;;;;2115316;28;20196;-67
2021/05/20 01:37:05;;;;;;;2.20;1.20;;;6.10;99.90;;;;;;2115489;27;20171;-67
2021/05/20 01:39:22;;;;;;;1.05;0.90;;;6.10;99.90;;;;;;2115310;28;20171;-66
2021/05/20 01:40:22;;;;;;;1.50;1.40;;;6.10;99.90;;;;;;2115082;28;20198;-67
2021/05/20 01:41:23;;;;;;;1.13;0.97;;;6.10;99.90;;;;;;2114922;28;20212;-67
2021/05/20 01:42:24;;;;;;;1.23;1.00;;;6.20;99.90;;;;;;2115471;28;20234;-67
2021/05/20 01:43:26;;;;;;;1.50;1.00;;;6.20;99.90;;;;;;2115194;28;20184;-67
2021/05/20 01:44:27;;;;;;;1.25;0.70;;;6.20;99.90;;;;;;2114419;28;20181;-67
2021/05/20 01:45:27;;;;;;;0.87;0.73;;;6.10;99.90;;;;;;2114188;28;20245;-67
2021/05/20 01:46:28;;;;;;;0.70;0.70;;;6.10;99.90;;;;;;2115229;27;20578;-66
2021/05/20 01:47:29;;;;;;;0.80;0.73;;;6.20;99.90;;;;;;2116927;28;20174;-66
2021/05/20 01:48:36;;;;;;;0.90;0.83;;;6.10;99.90;;;;;;2118707;28;20177;-66
2021/05/20 01:49:37;;;;;;;0.70;0.70;;;6.10;99.90;;;;;;2119382;28;20516;-66
2021/05/20 01:50:38;;;;;;;0.60;0.60;;;6.10;99.90;;;;;;2118156;28;20181;-67
2021/05/20 01:51:40;;;;;;;2.10;0.90;;;6.10;99.90;;;;;;2117066;28;20196;-67
2021/05/20 01:52:40;;;;;;;1.67;0.90;;;6.20;99.90;;;;;;2114498;28;20184;-66
2021/05/20 01:53:47;;;;;;;0.97;0.90;;;6.20;99.90;;;;;;2114488;28;20627;-66
2021/05/20 01:54:48;;;;;;;0.82;0.82;;;6.20;99.90;;;;;;2115107;28;20162;-67
2021/05/20 01:55:49;;;;;;;1.00;0.87;;;6.20;99.90;;;;;;2114850;28;20229;-66
2021/05/20 01:56:49;;;;;;;3.38;1.00;;;6.30;99.90;;;;;;2115092;28;20174;-66
2021/05/20 01:57:50;;;;;;;0.80;0.80;;;6.30;99.90;;;;;;2115181;28;20242;-67
2021/05/20 01:58:51;;;;;;;2.03;0.90;;;6.30;99.90;;;;;;2114966;28;20189;-66
2021/05/20 01:59:52;;;;;;;1.07;0.90;;;6.30;99.90;;;;;;2115144;28;20236;-67
2021/05/20 02:00:52;;;;;;;2.77;1.00;;;6.30;99.90;;;;;;2115073;28;20585;-67
2021/05/20 02:01:53;;;;;;;1.57;1.00;;;6.30;99.90;;;;;;2114869;27;20186;-67
2021/05/20 02:02:54;;;;;;;1.00;0.80;;;6.30;99.90;;;;;;2114901;28;20238;-67
2021/05/20 02:03:54;;;;;;;0.80;0.80;;;6.30;99.90;;;;;;2115037;28;20273;-66
2021/05/20 02:04:55;;;;;;;1.23;0.80;;;6.30;99.90;;;;;;2114824;28;20182;-67
2021/05/20 02:06:01;;;;;;;0.93;0.80;;;6.30;99.90;;;;;;2114968;28;20284;-67
2021/05/20 02:07:02;;;;;;;1.73;0.93;;;6.30;99.90;;;;;;2114122;28;20541;-67
2021/05/20 02:08:03;;;;;;;0.93;0.82;;;6.30;99.90;;;;;;2114316;28;20269;-66
2021/05/20 02:09:06;;;;;;;0.80;0.80;;;6.30;99.90;;;;;;2114088;28;20792;-67
2021/05/20 02:10:07;;;;;;;0.82;0.82;;;6.20;99.90;;;;;;2106088;28;20247;-67
2021/05/20 02:11:08;;;;;;;1.10;0.80;;;6.20;99.90;;;;;;2113709;28;20648;-67
2021/05/20 02:12:09;;;;;;;2.70;0.97;;;6.20;99.90;;;;;;2114757;28;20179;-67
2021/05/20 02:13:11;;;;;;;1.20;0.90;;;6.20;99.90;;;;;;2114914;27;20247;-67
2021/05/20 02:14:11;;;;;;;2.10;0.88;;;6.20;99.90;;;;;;2115062;28;20197;-67
2021/05/20 02:15:12;;;;;;;1.40;1.07;;;6.20;99.90;;;;;;2114211;28;20201;-67
2021/05/20 02:16:13;;;;;;;1.93;0.93;;;6.30;99.90;;;;;;2114411;28;20166;-67
2021/05/20 02:17:13;;;;;;;0.90;0.83;;;6.30;99.90;;;;;;2114966;28;20194;-66
2021/05/20 02:18:15;;;;;;;2.27;1.13;;;6.30;99.90;;;;;;2114782;28;20193;-67
2021/05/20 02:19:15;;;;;;;2.15;1.17;;;6.40;99.90;;;;;;2114758;28;20193;-67
2021/05/20 02:20:16;;;;;;;4.43;1.90;;;6.40;99.90;;;;;;2114903;28;20663;-67
2021/05/20 02:21:17;;;;;;;1.67;1.30;;;6.40;99.90;;;;;;2114591;27;20206;-67
2021/05/20 02:22:18;;;;;;;3.13;1.60;;;6.40;99.90;;;;;;2114886;27;20182;-67
2021/05/20 02:23:19;;;;;;;2.10;1.40;;;6.40;99.90;;;;;;2114602;28;20711;-67
2021/05/20 02:24:19;;;;;;;2.80;1.20;;;6.40;99.90;;;;;;2114186;28;20191;-67
2021/05/20 02:25:20;;;;;;;1.93;1.00;;;6.50;99.90;;;;;;2113947;28;20189;-67
2021/05/20 02:26:21;;;;;;;1.20;0.90;;;6.50;99.90;;;;;;2114740;28;20182;-67
2021/05/20 02:27:22;;;;;;;1.67;0.90;;;6.50;99.90;;;;;;2114579;28;20224;-67
2021/05/20 02:28:23;;;;;;;1.10;0.90;;;6.50;99.90;;;;;;2114550;28;20729;-67
2021/05/20 02:29:24;;;;;;;0.80;0.80;;;6.50;99.90;;;;;;2114630;28;20189;-67
2021/05/20 02:30:25;;;;;;;1.30;0.80;;;6.50;99.90;;;;;;2114753;28;20182;-67
2021/05/20 02:31:26;;;;;;;0.85;0.80;;;6.50;99.90;;;;;;2114359;28;20190;-67
2021/05/20 02:32:27;;;;;;;1.33;1.10;;;6.40;99.90;;;;;;2114855;28;20536;-66
2021/05/20 02:33:28;;;;;;;1.20;0.98;;;6.40;99.90;;;;;;2114669;28;20181;-67
2021/05/20 02:34:28;;;;;;;1.40;1.20;;;6.40;99.90;;;;;;2114711;28;20179;-67
2021/05/20 02:35:29;;;;;;;2.10;1.23;;;6.40;99.90;;;;;;2114693;28;20237;-67
2021/05/20 02:36:30;;;;;;;2.40;1.50;;;6.40;99.90;;;;;;2114848;28;20216;-67
2021/05/20 02:37:31;;;;;;;2.23;1.30;;;6.30;99.90;;;;;;2114687;28;20309;-66
2021/05/20 02:38:32;;;;;;;2.30;1.20;;;6.30;99.90;;;;;;2114723;28;20193;-67
2021/05/20 02:39:32;;;;;;;3.90;1.50;;;6.30;99.90;;;;;;2114581;27;20178;-66
2021/05/20 02:40:34;;;;;;;2.00;1.30;;;6.30;99.90;;;;;;2114653;28;20615;-67
2021/05/20 02:41:35;;;;;;;1.73;1.30;;;6.20;99.90;;;;;;2113844;28;20189;-67
2021/05/20 02:42:37;;;;;;;1.50;1.40;;;6.30;99.90;;;;;;2113906;28;20676;-67
2021/05/20 02:43:37;;;;;;;2.03;1.65;;;6.20;99.90;;;;;;2114753;28;20315;-67
2021/05/20 02:44:38;;;;;;;2.53;1.50;;;6.30;99.90;;;;;;2114559;28;20719;-67
2021/05/20 02:45:39;;;;;;;1.30;1.00;;;6.20;99.90;;;;;;2114595;28;20292;-67
2021/05/20 02:46:40;;;;;;;1.10;0.90;;;6.30;99.90;;;;;;2114528;28;20174;-67
2021/05/20 02:47:42;;;;;;;1.37;1.10;;;6.30;99.90;;;;;;2114652;28;20183;-67
2021/05/20 02:48:43;;;;;;;1.30;1.00;;;6.40;99.90;;;;;;2114496;28;20647;-66
2021/05/20 02:49:44;;;;;;;1.10;0.87;;;6.40;99.90;;;;;;2114080;28;20233;-67
2021/05/20 02:50:45;;;;;;;0.70;0.70;;;6.40;99.90;;;;;;2113963;28;20277;-67
2021/05/20 02:51:45;;;;;;;1.03;0.70;;;6.40;99.90;;;;;;2114608;28;20198;-67
2021/05/20 02:52:46;;;;;;;0.70;0.67;;;6.40;99.90;;;;;;2114733;28;20177;-67
2021/05/20 02:53:47;;;;;;;1.30;0.97;;;6.40;99.90;;;;;;2114307;28;20196;-67
2021/05/20 02:54:47;;;;;;;0.90;0.90;;;6.40;99.90;;;;;;2114163;28;20177;-67
2021/05/20 02:55:48;;;;;;;1.13;0.87;;;6.30;99.90;;;;;;2114588;28;20220;-67
2021/05/20 02:56:49;;;;;;;1.27;0.80;;;6.30;99.90;;;;;;2114559;28;20186;-67
2021/05/20 02:57:56;;;;;;;2.63;1.20;;;6.30;99.90;;;;;;2111480;28;20178;-67
2021/05/20 02:58:57;;;;;;;1.10;0.90;;;6.30;99.90;;;;;;2099504;28;20305;-67
2021/05/20 02:59:58;;;;;;;0.90;0.70;;;6.30;99.90;;;;;;2100813;28;20222;-67
2021/05/20 03:00:58;;;;;;;3.13;1.20;;;6.30;99.90;;;;;;2097639;28;20185;-67
2021/05/20 03:02:07;;;;;;;1.20;1.10;;;6.30;99.90;;;;;;2097696;28;20239;-67
2021/05/20 03:03:07;;;;;;;1.08;0.98;;;6.30;99.90;;;;;;2097998;28;20157;-67
2021/05/20 03:04:08;;;;;;;0.97;0.70;;;6.30;99.90;;;;;;2097780;28;20263;-67
2021/05/20 03:05:09;;;;;;;1.10;0.80;;;6.30;99.90;;;;;;2097841;28;20262;-67
2021/05/20 03:06:10;;;;;;;1.50;1.00;;;6.30;99.90;;;;;;2097630;28;20524;-67
2021/05/20 03:07:11;;;;;;;1.27;0.80;;;6.30;99.90;;;;;;2097899;28;20274;-66
2021/05/20 03:08:12;;;;;;;1.00;0.70;;;6.20;99.90;;;;;;2097903;28;20180;-66
2021/05/20 03:09:13;;;;;;;0.80;0.80;;;6.30;99.90;;;;;;2097776;28;20215;-67
2021/05/20 03:10:14;;;;;;;1.00;0.90;;;6.30;99.90;;;;;;2097219;28;20281;-66
2021/05/20 03:11:15;;;;;;;1.25;1.10;;;6.30;99.90;;;;;;2096772;28;20179;-66
2021/05/20 03:12:16;;;;;;;1.67;1.30;;;6.30;99.90;;;;;;2097771;28;20178;-67
2021/05/20 03:13:17;;;;;;;2.03;1.30;;;6.20;99.90;;;;;;2097640;28;20882;-66
2021/05/20 03:14:17;;;;;;;2.60;1.37;;;6.20;99.90;;;;;;2097697;28;20267;-67
2021/05/20 03:15:18;;;;;;;1.63;1.23;;;6.20;99.90;;;;;;2097426;28;20645;-67
2021/05/20 03:16:19;;;;;;;1.80;1.23;;;6.20;99.90;;;;;;2097670;28;20214;-66
2021/05/20 03:17:21;;;;;;;1.60;1.30;;;6.10;99.90;;;;;;2097333;28;20210;-67
2021/05/20 03:18:21;;;;;;;1.30;1.20;;;6.10;99.90;;;;;;2096947;28;20515;-66
2021/05/20 03:19:22;;;;;;;2.40;1.50;;;6.10;99.90;;;;;;2096826;28;20622;-67
2021/05/20 03:20:23;;;;;;;3.00;1.20;;;6.10;99.90;;;;;;2097539;28;20240;-67
2021/05/20 03:21:26;;;;;;;4.33;1.40;;;6.10;99.90;;;;;;2097327;28;20179;-66
2021/05/20 03:22:27;;;;;;;2.30;1.33;;;6.10;99.90;;;;;;2097361;28;20214;-67
2021/05/20 03:23:27;;;;;;;2.40;1.20;;;6.00;99.90;;;;;;2097131;28;20212;-66
2021/05/20 03:24:28;;;;;;;1.53;1.20;;;6.00;99.90;;;;;;2097541;28;20187;-67
2021/05/20 03:25:29;;;;;;;1.40;1.30;;;6.00;99.90;;;;;;2097502;28;20202;-67
2021/05/20 03:26:29;;;;;;;1.90;1.47;;;5.90;99.90;;;;;;2100640;28;20241;-67
2021/05/20 03:27:30;;;;;;;1.50;1.37;;;5.90;99.90;;;;;;2107453;28;20289;-67
2021/05/20 03:28:31;;;;;;;1.97;1.70;;;5.90;99.90;;;;;;2105647;28;20188;-67
2021/05/20 03:29:31;;;;;;;2.13;1.50;;;6.00;99.90;;;;;;2105850;28;20175;-67
2021/05/20 03:30:32;;;;;;;2.13;1.50;;;6.00;99.90;;;;;;2105837;28;20183;-66
2021/05/20 03:31:33;;;;;;;1.63;1.33;;;6.00;99.90;;;;;;2105535;28;20261;-67
2021/05/20 03:32:34;;;;;;;2.00;1.20;;;6.00;99.90;;;;;;2105966;28;20815;-67
2021/05/20 03:33:35;;;;;;;4.43;1.40;;;6.00;99.90;;;;;;2105666;28;20428;-67
2021/05/20 03:34:35;;;;;;;1.37;1.20;;;6.00;99.90;;;;;;2105976;28;20552;-67
2021/05/20 03:35:36;;;;;;;2.10;1.40;;;6.00;99.90;;;;;;2105687;28;20247;-67
2021/05/20 03:36:37;;;;;;;2.03;1.40;;;5.90;99.90;;;;;;2105979;28;20266;-67
2021/05/20 03:37:37;;;;;;;2.37;1.30;;;5.90;99.90;;;;;;2105732;28;20325;-67
2021/05/20 03:38:38;;;;;;;1.43;1.20;;;5.90;99.90;;;;;;2105667;28;20205;-67
2021/05/20 03:39:39;;;;;;;0.90;0.90;;;5.90;99.90;;;;;;2105619;28;20230;-67
2021/05/20 03:40:39;;;;;;;0.90;0.90;;;6.00;99.90;;;;;;2105783;28;20209;-67
2021/05/20 03:41:40;;;;;;;2.37;1.10;;;6.00;99.90;;;;;;2105373;28;20249;-67
2021/05/20 03:42:41;;;;;;;1.50;1.00;;;6.00;99.90;;;;;;2105813;28;20183;-67
2021/05/20 03:43:42;;;;;;;1.40;1.30;;;6.10;99.90;;;;;;2105757;28;20327;-66
2021/05/20 03:44:42;;;;;;;1.23;1.10;;;6.10;99.90;;;;;;2105550;28;20182;-66
2021/05/20 03:45:43;;;;;;;2.33;1.10;;;6.20;99.90;;;;;;2105502;28;20221;-67
2021/05/20 03:46:44;;;;;;;1.30;0.93;;;6.20;99.90;;;;;;2105610;28;20315;-67
2021/05/20 03:47:44;;;;;;;1.80;1.30;;;6.20;99.90;;;;;;2105835;28;20187;-67
2021/05/20 03:48:45;;;;;;;1.57;1.20;;;6.30;99.90;;;;;;2105622;28;20178;-67
2021/05/20 03:49:45;;;;;;;1.20;1.10;;;6.30;99.90;;;;;;2105668;28;20601;-67
2021/05/20 03:50:46;;;;;;;1.03;1.00;;;6.30;99.90;;;;;;2105600;28;20187;-67
2021/05/20 03:51:47;;;;;;;1.10;1.00;;;6.30;99.90;;;;;;2105466;28;20179;-67
2021/05/20 03:52:47;;;;;;;1.30;0.90;;;6.30;99.90;;;;;;2105621;28;20183;-67
2021/05/20 03:53:48;;;;;;;0.60;0.60;;;6.30;99.90;;;;;;2105779;28;20175;-67
2021/05/20 03:54:49;;;;;;;0.87;0.87;;;6.20;99.90;;;;;;2105617;28;20264;-66
2021/05/20 03:55:50;;;;;;;1.77;1.00;;;6.20;99.90;;;;;;2105883;28;20280;-67
2021/05/20 03:56:50;;;;;;;1.27;1.10;;;6.20;99.90;;;;;;2105879;28;20196;-67
2021/05/20 03:57:51;;;;;;;1.10;0.97;;;6.20;99.90;;;;;;2105880;28;20592;-67
2021/05/20 03:58:52;;;;;;;1.20;1.10;;;6.20;99.90;;;;;;2105676;28;20190;-67
2021/05/20 03:59:53;;;;;;;1.20;1.10;;;6.20;99.90;;;;;;2105887;28;20187;-66
2021/05/20 04:00:54;;;;;;;1.53;1.20;;;6.10;99.90;;;;;;2105707;28;20202;-67
2021/05/20 04:01:54;;;;;;;2.03;1.50;;;6.20;99.90;;;;;;2105611;28;20261;-67
2021/05/20 04:02:55;;;;;;;2.00;1.80;;;6.20;99.90;;;;;;2105775;28;20509;-67
2021/05/20 04:03:56;;;;;;;1.70;1.40;;;6.20;99.90;;;;;;2105801;28;20669;-67
2021/05/20 04:04:56;;;;;;;2.00;1.50;;;6.20;99.90;;;;;;2105710;28;20276;-68
2021/05/20 04:06:03;;;;;;;4.03;3.27;;;6.20;99.90;;;;;;2105726;28;20209;-67
2021/05/20 04:07:04;;;;;;;5.53;4.55;;;6.30;99.90;;;;;;2105183;28;20174;-67
2021/05/20 04:08:04;;;;;;;1.43;1.20;;;6.30;99.90;;;;;;2105151;28;20207;-67
2021/05/20 04:09:05;;;;;;;3.37;1.20;;;6.20;99.90;;;;;;2105698;28;20230;-67
2021/05/20 04:10:07;;;;;;;2.63;1.77;;;6.20;99.90;;;;;;2105758;28;20186;-67
2021/05/20 04:11:08;;;;;;;3.08;1.58;;;6.30;99.90;;;;;;2105261;28;20206;-67
2021/05/20 04:12:09;;;;;;;3.95;2.42;;;6.30;99.90;;;;;;2105460;28;20309;-67
2021/05/20 04:13:10;;;;;;;3.43;2.60;;;6.40;99.90;;;;;;2104732;28;20171;-67
2021/05/20 04:14:11;;;;;;;3.80;2.80;;;6.40;99.90;;;;;;2104929;28;20415;-67
2021/05/20 04:15:12;;;;;;;2.53;1.83;;;6.40;99.90;;;;;;2105426;28;20193;-67
2021/05/20 04:16:13;;;;;;;1.40;1.30;;;6.30;99.90;;;;;;2105521;28;20175;-67
2021/05/20 04:17:14;;;;;;;1.60;1.30;;;6.40;99.90;;;;;;2105358;28;20183;-67
2021/05/20 04:18:14;;;;;;;1.00;0.90;;;6.30;99.90;;;;;;2105539;28;20171;-67
2021/05/20 04:19:16;;;;;;;0.80;0.80;;;6.30;99.90;;;;;;2105338;28;20186;-67
2021/05/20 04:20:16;;;;;;;0.80;0.80;;;6.30;99.90;;;;;;2105483;28;20680;-67
2021/05/20 04:21:17;;;;;;;1.30;0.90;;;6.30;99.90;;;;;;2105061;28;20182;-67
2021/05/20 04:22:18;;;;;;;2.08;0.90;;;6.20;99.90;;;;;;2105272;28;20654;-67
2021/05/20 04:23:20;;;;;;;1.10;0.90;;;6.20;99.90;;;;;;2105384;28;20187;-67
2021/05/20 04:24:21;;;;;;;1.75;1.30;;;6.20;99.90;;;;;;2105315;28;20215;-67
2021/05/20 04:25:22;;;;;;;1.40;1.30;;;6.20;99.90;;;;;;2105264;28;20209;-67
2021/05/20 04:26:23;;;;;;;2.30;1.20;;;6.20;99.90;;;;;;2105443;28;20198;-67
2021/05/20 04:27:24;;;;;;;2.03;1.37;;;6.30;99.90;;;;;;2105160;28;20187;-64
2021/05/20 04:28:25;;;;;;;1.33;1.17;;;6.30;99.90;;;;;;2104727;28;20186;-67
2021/05/20 04:29:25;;;;;;;1.38;1.20;;;6.30;99.90;;;;;;2104716;28;20206;-66
2021/05/20 04:30:26;;;;;;;1.70;1.60;;;6.30;99.90;;;;;;2105428;28;20182;-65
2021/05/20 04:31:27;;;;;;;1.30;1.20;;;6.30;99.90;;;;;;2105243;28;20179;-65
2021/05/20 04:32:28;;;;;;;1.40;1.20;;;6.40;99.90;;;;;;2105268;28;20916;-65
2021/05/20 04:33:28;;;;;;;1.27;1.00;;;6.40;99.90;;;;;;2105401;28;20740;-65
2021/05/20 04:34:29;;;;;;;0.83;0.83;;;6.40;99.90;;;;;;2105305;28;20186;-65
2021/05/20 04:35:31;;;;;;;1.13;0.83;;;6.30;99.90;;;;;;2105381;28;20199;-65
2021/05/20 04:36:32;;;;;;;2.40;1.10;;;6.30;99.90;;;;;;2105275;28;20191;-64
2021/05/20 04:37:32;;;;;;;2.50;1.20;;;6.30;99.90;;;;;;2105388;28;20209;-65
2021/05/20 04:38:33;;;;;;;1.30;1.20;;;6.40;99.90;;;;;;2105172;28;20824;-65
2021/05/20 04:39:34;;;;;;;1.63;1.33;;;6.40;99.90;;;;;;2105431;28;20223;-65
2021/05/20 04:40:37;;;;;;;1.90;1.70;;;6.30;99.90;;;;;;2105206;28;20178;-65
2021/05/20 04:41:38;;;;;;;3.00;1.60;;;6.40;99.90;;;;;;2105224;28;20175;-65
2021/05/20 04:42:39;;;;;;;1.50;1.40;;;6.50;99.90;;;;;;2105456;28;20171;-65
2021/05/20 04:43:40;;;;;;;1.15;1.05;;;6.40;99.90;;;;;;2105507;28;20179;-65
2021/05/20 04:44:41;;;;;;;1.20;1.10;;;6.50;99.90;;;;;;2105416;28;20638;-65
2021/05/20 04:45:44;;;;;;;1.83;1.57;;;6.40;99.90;;;;;;2105327;28;20260;-65
2021/05/20 04:46:45;;;;;;;1.75;1.65;;;6.40;99.90;;;;;;2105556;28;20564;-65
2021/05/20 04:47:46;;;;;;;2.83;2.07;;;6.40;99.90;;;;;;2107759;28;20179;-66
2021/05/20 04:48:47;;;;;;;3.35;2.08;;;6.40;99.90;;;;;;2107850;28;20175;-65
2021/05/20 04:49:47;;;;;;;3.33;2.60;;;6.40;99.90;;;;;;2107698;28;20170;-65
2021/05/20 04:50:48;;;;;;;5.50;4.60;;;6.50;99.90;;;;;;2107735;28;20262;-65
2021/05/20 04:51:49;;;;;;;6.43;4.53;;;6.60;99.90;;;;;;2105841;28;20716;-65
2021/05/20 04:52:50;;;;;;;5.50;3.80;;;6.60;99.90;;;;;;2105679;28;20652;-65
2021/05/20 04:53:51;;;;;;;4.50;3.30;;;6.70;99.90;;;;;;2106468;28;20183;-65
2021/05/20 04:54:51;;;;;;;2.97;2.27;;;6.70;99.90;;;;;;2106372;28;20262;-65
2021/05/20 04:55:52;;;;;;;4.30;2.27;;;6.70;99.90;;;;;;2106646;28;20191;-64
2021/05/20 04:56:53;;;;;;;2.83;1.90;;;6.70;99.90;;;;;;2106352;28;20239;-65
2021/05/20 04:57:54;;;;;;;4.57;2.33;;;6.80;99.90;;;;;;2105177;28;20801;-64
2021/05/20 04:58:54;;;;;;;3.97;2.40;;;6.90;99.90;;;;;;2097676;28;20265;-65
2021/05/20 04:59:55;;;;;;;3.93;2.20;;;6.90;99.90;;;;;;2097995;28;20277;-65
2021/05/20 05:00:56;;;;;;;2.70;1.30;;;6.90;99.90;;;;;;2098192;28;20261;-66
2021/05/20 05:01:56;;;;;;;2.27;1.23;;;7.00;99.90;;;;;;2098802;28;20215;-65
2021/05/20 05:02:57;;;;;;;1.60;1.13;;;7.00;99.90;;;;;;2098326;28;20255;-65
2021/05/20 05:03:58;;;;;;;2.77;1.73;;;7.00;99.90;;;;;;2098587;28;20762;-65
2021/05/20 05:04:59;;;;;;;3.50;1.70;;;7.00;99.90;;;;;;2098076;28;20230;-65
2021/05/20 05:05:59;;;;;;;1.42;1.30;;;7.10;99.90;;;;;;2098606;28;20195;-65
2021/05/20 05:07:00;;;;;;;1.73;1.20;;;7.10;99.90;;;;;;2098877;28;20204;-65
2021/05/20 05:08:01;;;;;;;1.37;1.00;;;7.10;99.90;;;;;;2098328;28;20196;-64
2021/05/20 05:09:02;;;;;;;1.30;1.20;;;7.10;99.90;;;;;;2098862;28;20215;-65
2021/05/20 05:10:05;;;;;;;2.30;1.10;;;7.10;99.90;;;;;;2099028;28;20642;-65
2021/05/20 05:11:06;;;;;;;1.85;1.17;;;7.10;99.90;;;;;;2098901;28;20203;-64
2021/05/20 05:12:07;;;;;;;1.30;0.90;;;7.20;99.90;;;;;;2099095;28;20636;-65
2021/05/20 05:13:08;;;;;;;1.63;1.00;;;7.10;99.90;;;;;;2099151;28;20189;-64
2021/05/20 05:14:09;;;;;;;1.20;1.00;;;7.10;99.90;;;;;;2099189;28;20172;-65
2021/05/20 05:15:10;;;;;;;0.80;0.80;;;7.10;99.90;;;;;;2099053;28;20537;-64
2021/05/20 05:16:10;;;;;;;2.25;1.05;;;7.00;99.90;;;;;;2098868;28;20192;-65
2021/05/20 05:17:11;;;;;;;1.70;1.40;;;7.00;99.90;;;;;;2099046;28;20176;-64
2021/05/20 05:18:12;;;;;;;1.43;1.33;;;7.00;99.90;;;;;;2099103;28;20593;-65
2021/05/20 05:19:12;;;;;;;1.97;1.50;;;7.00;99.90;;;;;;2098952;28;20176;-65
2021/05/20 05:20:13;;;;;;;1.40;1.30;;;7.00;99.90;;;;;;2098674;28;20186;-65
2021/05/20 05:21:14;;;;;;;2.77;1.40;;;7.00;99.90;;;;;;2098646;28;20176;-65
2021/05/20 05:22:15;;;;;;;1.13;1.03;;;7.10;99.90;;;;;;2098794;28;20223;-66
2021/05/20 05:23:15;;;;;;;1.33;0.90;;;7.20;99.90;;;;;;2098906;28;20222;-64
2021/05/20 05:24:16;;;;;;;1.57;1.00;;;7.20;99.90;;;;;;2098571;28;20183;-65